createdAt,value
2024-03-03T00:00:35.502Z,10.49
2024-03-03T00:03:10.917Z,10.55
2024-03-03T00:05:44.579Z,10.58
2024-03-03T00:08:17.350Z,10.54
2024-03-03T00:10:51.419Z,10.62
2024-03-03T00:13:26.051Z,10.57
2024-03-03T00:15:59.126Z,10.64
2024-03-03T00:18:31.968Z,10.64
2024-03-03T00:21:06.311Z,10.49
2024-03-03T00:23:38.989Z,10.63
2024-03-03T00:26:11.899Z,10.47
2024-03-03T00:28:44.886Z,10.40
2024-03-03T00:31:20.001Z,10.41
2024-03-03T00:33:52.878Z,10.27
2024-03-03T00:36:25.694Z,10.21
2024-03-03T00:38:58.359Z,10.23
2024-03-03T00:41:31.196Z,10.32
2024-03-03T00:44:04.463Z,10.33
2024-03-03T00:46:37.253Z,10.35
2024-03-03T00:49:09.963Z,10.21
2024-03-03T00:51:42.676Z,10.10
2024-03-03T00:54:15.313Z,9.84
2024-03-03T00:56:47.967Z,9.81
2024-03-03T00:59:20.917Z,9.90
2024-03-03T01:01:53.615Z,9.74
2024-03-03T01:04:26.252Z,9.83
2024-03-03T01:06:58.969Z,9.73
2024-03-03T01:09:31.677Z,9.46
2024-03-03T01:12:04.825Z,9.39
2024-03-03T01:14:37.489Z,9.34
2024-03-03T01:17:13.003Z,9.41
2024-03-03T01:19:46.791Z,9.33
2024-03-03T01:22:28.880Z,9.31
2024-03-03T01:25:01.643Z,9.29
2024-03-03T01:27:34.693Z,9.34
2024-03-03T01:30:08.752Z,9.15
2024-03-03T01:32:41.410Z,9.08
2024-03-03T01:35:14.136Z,8.95
2024-03-03T01:37:46.771Z,8.90
2024-03-03T01:40:19.550Z,8.81
2024-03-03T01:42:59.324Z,8.92
2024-03-03T01:45:32.064Z,8.99
2024-03-03T01:48:05.294Z,9.00
2024-03-03T01:50:39.993Z,9.05
2024-03-03T01:53:14.136Z,9.08
2024-03-03T01:55:48.093Z,9.07
2024-03-03T01:58:24.536Z,9.08
2024-03-03T02:01:07.164Z,9.24
2024-03-03T02:03:40.715Z,9.15
2024-03-03T02:06:18.736Z,9.14
2024-03-03T02:08:51.842Z,9.15
2024-03-03T02:11:24.597Z,9.14
2024-03-03T02:13:57.513Z,9.16
2024-03-03T02:16:30.210Z,9.13
2024-03-03T02:19:03.200Z,9.16
2024-03-03T02:21:36.017Z,9.16
2024-03-03T02:24:08.681Z,9.01
2024-03-03T02:26:41.350Z,9.08
2024-03-03T02:29:15.755Z,8.95
2024-03-03T02:31:50.255Z,8.93
2024-03-03T02:34:23.346Z,9.12
2024-03-03T02:37:02.470Z,8.97
2024-03-03T02:39:35.239Z,9.02
2024-03-03T02:42:08.046Z,9.02
2024-03-03T02:44:40.654Z,8.97
2024-03-03T02:47:13.513Z,8.82
2024-03-03T02:49:46.189Z,8.79
2024-03-03T02:52:19.159Z,8.76
2024-03-03T02:54:51.913Z,8.61
2024-03-03T02:57:24.587Z,8.74
2024-03-03T02:59:57.303Z,8.85
2024-03-03T03:02:31.119Z,8.98
2024-03-03T03:05:04.493Z,9.11
2024-03-03T03:07:37.197Z,8.87
2024-03-03T03:10:18.076Z,8.82
2024-03-03T03:12:50.935Z,8.66
2024-03-03T03:15:23.941Z,8.56
2024-03-03T03:17:56.647Z,8.51
2024-03-03T03:20:29.360Z,8.52
2024-03-03T03:23:01.990Z,8.55
2024-03-03T03:25:35.179Z,8.68
2024-03-03T03:28:14.118Z,8.70
2024-03-03T03:30:46.811Z,8.75
2024-03-03T03:33:19.538Z,8.61
2024-03-03T03:35:52.276Z,8.54
2024-03-03T03:38:24.921Z,8.36
2024-03-03T03:40:57.573Z,8.27
2024-03-03T03:43:30.712Z,8.18
2024-03-03T03:46:03.459Z,8.10
2024-03-03T03:48:36.151Z,8.02
2024-03-03T03:51:09.100Z,7.98
2024-03-03T03:53:41.751Z,7.79
2024-03-03T03:56:21.669Z,7.89
2024-03-03T03:58:54.504Z,7.82
2024-03-03T04:01:29.747Z,7.69
2024-03-03T04:04:02.830Z,7.70
2024-03-03T04:06:35.570Z,7.69
2024-03-03T04:09:08.311Z,7.62
2024-03-03T04:12:00.651Z,7.75
2024-03-03T04:14:33.446Z,7.80
2024-03-03T04:17:10.335Z,7.94
2024-03-03T04:19:43.002Z,8.03
2024-03-03T04:22:15.781Z,8.10
2024-03-03T04:24:48.598Z,8.15
2024-03-03T04:27:22.450Z,8.12
2024-03-03T04:29:55.085Z,8.07
2024-03-03T04:32:34.029Z,8.15
2024-03-03T04:35:07.133Z,8.09
2024-03-03T04:37:39.794Z,8.04
2024-03-03T04:40:12.524Z,8.09
2024-03-03T04:42:47.263Z,8.04
2024-03-03T04:45:20.234Z,8.08
2024-03-03T04:47:52.968Z,8.08
2024-03-03T04:50:25.608Z,8.19
2024-03-03T04:52:58.386Z,8.24
2024-03-03T04:55:31.389Z,8.33
2024-03-03T04:58:06.169Z,8.43
2024-03-03T05:00:38.837Z,8.43
2024-03-03T05:03:12.380Z,8.72
2024-03-03T05:05:45.069Z,8.76
2024-03-03T05:08:19.949Z,8.68
2024-03-03T05:10:52.841Z,8.61
2024-03-03T05:13:26.683Z,8.63
2024-03-03T05:15:59.922Z,8.46
2024-03-03T05:18:33.619Z,8.49
2024-03-03T05:21:06.266Z,8.44
2024-03-03T05:23:54.440Z,8.61
2024-03-03T05:26:27.651Z,8.60
2024-03-03T05:29:00.356Z,8.48
2024-03-03T05:31:42.176Z,8.62
2024-03-03T05:34:16.420Z,8.57
2024-03-03T05:36:49.546Z,8.51
2024-03-03T05:39:22.909Z,8.51
2024-03-03T05:41:59.405Z,8.48
2024-03-03T05:44:35.408Z,8.65
2024-03-03T05:47:10.520Z,8.62
2024-03-03T05:49:44.267Z,8.73
2024-03-03T05:52:17.047Z,8.71
2024-03-03T05:54:49.802Z,8.69
2024-03-03T05:57:22.593Z,8.59
2024-03-03T05:59:55.338Z,8.68
2024-03-03T06:02:28.057Z,8.58
2024-03-03T06:05:00.743Z,8.55
2024-03-03T06:07:33.511Z,8.60
2024-03-03T06:10:06.748Z,8.65
2024-03-03T06:12:39.499Z,8.60
2024-03-03T06:15:12.330Z,8.62
2024-03-03T06:17:45.067Z,8.64
2024-03-03T06:20:27.435Z,8.64
2024-03-03T06:23:00.050Z,8.49
2024-03-03T06:25:33.148Z,8.52
2024-03-03T06:28:16.185Z,8.53
2024-03-03T06:30:48.959Z,8.49
2024-03-03T06:33:22.097Z,8.44
2024-03-03T06:35:54.907Z,8.45
2024-03-03T06:38:27.852Z,8.49
2024-03-03T06:41:00.551Z,8.51
2024-03-03T06:43:33.282Z,8.51
2024-03-03T06:46:06.023Z,8.55
2024-03-03T06:48:39.793Z,8.46
2024-03-03T06:51:14.038Z,8.62
2024-03-03T06:53:46.747Z,8.72
2024-03-03T06:56:19.707Z,8.78
2024-03-03T06:58:52.357Z,8.85
2024-03-03T07:01:25.111Z,8.86
2024-03-03T07:04:16.498Z,8.89
2024-03-03T07:06:49.192Z,8.93
2024-03-03T07:09:25.130Z,9.02
2024-03-03T07:11:59.137Z,9.01
2024-03-03T07:14:33.647Z,9.00
2024-03-03T07:17:06.206Z,9.14
2024-03-03T07:19:38.909Z,9.06
2024-03-03T07:22:11.789Z,9.06
2024-03-03T07:24:44.471Z,9.01
2024-03-03T07:27:17.152Z,9.03
2024-03-03T07:29:49.808Z,9.04
2024-03-03T07:32:23.134Z,8.94
2024-03-03T07:34:59.370Z,8.97
2024-03-03T07:37:33.022Z,8.76
2024-03-03T07:40:12.831Z,8.97
2024-03-03T07:42:45.598Z,8.90
2024-03-03T07:45:18.447Z,8.98
2024-03-03T07:47:51.163Z,8.99
2024-03-03T07:50:23.891Z,9.11
2024-03-03T07:52:56.650Z,9.25
2024-03-03T07:55:30.721Z,9.43
2024-03-03T07:58:04.158Z,9.57
2024-03-03T08:00:37.929Z,9.76
2024-03-03T08:03:11.103Z,9.76
2024-03-03T08:05:43.836Z,9.92
2024-03-03T08:08:16.638Z,10.13
2024-03-03T08:10:49.587Z,10.43
2024-03-03T08:13:22.313Z,10.45
2024-03-03T08:15:55.640Z,10.63
2024-03-03T08:18:28.559Z,10.87
2024-03-03T08:21:03.234Z,10.97
2024-03-03T08:23:35.922Z,11.03
2024-03-03T08:26:12.659Z,10.95
2024-03-03T08:28:45.427Z,11.00
2024-03-03T08:31:19.777Z,10.99
2024-03-03T08:33:52.502Z,11.08
2024-03-03T08:36:25.339Z,11.18
2024-03-03T08:38:58.353Z,11.41
2024-03-03T08:41:38.777Z,11.45
2024-03-03T08:44:11.521Z,11.59
2024-03-03T08:46:44.256Z,11.62
2024-03-03T08:49:27.272Z,11.65
2024-03-03T08:52:00.281Z,11.82
2024-03-03T08:54:33.636Z,11.98
2024-03-03T08:57:10.396Z,12.03
2024-03-03T08:59:56.588Z,12.19
2024-03-03T09:02:29.492Z,12.28
2024-03-03T09:05:02.891Z,12.34
2024-03-03T09:07:37.396Z,12.57
2024-03-03T09:10:19.313Z,12.63
2024-03-03T09:12:52.003Z,12.57
2024-03-03T09:15:24.779Z,12.77
2024-03-03T09:17:57.992Z,12.71
2024-03-03T09:20:30.691Z,12.60
2024-03-03T09:23:03.811Z,12.67
2024-03-03T09:25:36.579Z,12.65
2024-03-03T09:28:21.762Z,12.80
2024-03-03T09:30:55.954Z,12.91
2024-03-03T09:33:28.795Z,12.93
2024-03-03T09:36:01.762Z,13.12
2024-03-03T09:38:37.670Z,13.19
2024-03-03T09:41:10.750Z,13.24
2024-03-03T09:43:49.773Z,13.05
2024-03-03T09:46:28.380Z,13.25
2024-03-03T09:49:04.080Z,13.57
2024-03-03T09:51:42.239Z,13.65
2024-03-03T09:54:19.781Z,14.10
2024-03-03T09:56:54.498Z,13.97
2024-03-03T09:59:27.276Z,14.04
2024-03-03T10:02:00.464Z,14.01
2024-03-03T10:04:36.107Z,13.99
2024-03-03T10:07:12.831Z,14.15
2024-03-03T10:09:57.489Z,14.13
2024-03-03T10:12:32.975Z,14.20
2024-03-03T10:15:09.550Z,13.79
2024-03-03T10:17:42.450Z,13.81
2024-03-03T10:20:15.383Z,13.75
2024-03-03T10:22:48.562Z,13.56
2024-03-03T10:25:23.304Z,13.53
2024-03-03T10:28:14.535Z,13.76
2024-03-03T10:30:47.574Z,13.63
2024-03-03T10:33:27.173Z,14.12
2024-03-03T10:36:12.143Z,14.84
2024-03-03T10:38:57.226Z,15.22
2024-03-03T10:41:30.115Z,15.81
2024-03-03T10:44:03.341Z,15.92
2024-03-03T10:46:39.075Z,15.68
2024-03-03T10:49:15.050Z,16.02
2024-03-03T10:51:48.874Z,16.54
2024-03-03T10:54:24.170Z,17.02
2024-03-03T10:56:57.655Z,17.14
2024-03-03T10:59:46.925Z,17.26
2024-03-03T11:02:22.779Z,17.23
2024-03-03T11:05:05.430Z,17.12
2024-03-03T11:07:39.194Z,17.09
2024-03-03T11:10:13.531Z,17.35
2024-03-03T11:12:51.917Z,17.28
2024-03-03T11:15:27.590Z,17.50
2024-03-03T11:18:18.946Z,17.69
2024-03-03T11:20:57.554Z,17.54
2024-03-03T11:23:59.432Z,17.44
2024-03-03T11:26:44.079Z,16.87
2024-03-03T11:29:21.004Z,16.65
2024-03-03T11:31:54.253Z,16.97
2024-03-03T11:34:27.565Z,17.72
2024-03-03T11:37:02.108Z,18.34
2024-03-03T11:39:34.899Z,18.28
2024-03-03T11:42:34.119Z,18.48
2024-03-03T11:45:08.491Z,18.31
2024-03-03T11:47:57.252Z,18.64
2024-03-03T11:50:31.367Z,18.79
2024-03-03T11:53:04.086Z,19.21
2024-03-03T11:55:40.313Z,18.72
2024-03-03T11:58:17.610Z,18.61
2024-03-03T12:01:11.294Z,18.16
2024-03-03T12:03:45.447Z,17.78
2024-03-03T12:06:25.866Z,18.25
2024-03-03T12:09:05.969Z,18.29
2024-03-03T12:11:42.973Z,18.49
2024-03-03T12:14:15.923Z,18.61
2024-03-03T12:16:59.032Z,18.63
2024-03-03T12:19:36.095Z,18.32
2024-03-03T12:22:09.368Z,18.15
2024-03-03T12:24:42.078Z,18.11
2024-03-03T12:27:14.854Z,18.03
2024-03-03T12:30:02.211Z,18.10
2024-03-03T12:32:34.941Z,18.15
2024-03-03T12:35:09.885Z,18.55
2024-03-03T12:37:42.969Z,19.00
2024-03-03T12:40:19.114Z,18.85
2024-03-03T12:42:52.907Z,18.67
2024-03-03T12:45:26.203Z,18.43
2024-03-03T12:47:58.991Z,18.29
2024-03-03T12:50:31.751Z,18.25
2024-03-03T12:53:07.616Z,18.24
2024-03-03T12:55:43.500Z,18.12
2024-03-03T12:58:16.664Z,18.44
2024-03-03T13:00:51.274Z,18.37
2024-03-03T13:03:23.987Z,18.05
2024-03-03T13:05:56.668Z,18.21
2024-03-03T13:08:30.579Z,18.76
2024-03-03T13:11:03.360Z,19.04
2024-03-03T13:13:36.170Z,19.23
2024-03-03T13:16:13.548Z,19.75
2024-03-03T13:19:02.772Z,19.82
2024-03-03T13:21:37.599Z,19.49
2024-03-03T13:24:14.482Z,19.36
2024-03-03T13:26:47.320Z,18.97
2024-03-03T13:29:20.108Z,19.09
2024-03-03T13:31:53.938Z,18.98
2024-03-03T13:34:26.693Z,18.50
2024-03-03T13:36:59.367Z,18.56
2024-03-03T13:39:32.092Z,18.38
2024-03-03T13:42:13.079Z,18.48
2024-03-03T13:44:46.603Z,18.10
2024-03-03T13:47:19.438Z,18.19
2024-03-03T13:49:52.219Z,18.23
2024-03-03T13:52:25.327Z,18.71
2024-03-03T13:54:58.001Z,18.03
2024-03-03T13:57:35.797Z,17.77
2024-03-03T14:00:15.740Z,17.32
2024-03-03T14:02:48.627Z,17.47
2024-03-03T14:05:21.412Z,17.53
2024-03-03T14:07:54.446Z,17.75
2024-03-03T14:10:27.842Z,17.10
2024-03-03T14:13:12.980Z,16.93
2024-03-03T14:15:48.484Z,16.99
2024-03-03T14:18:21.271Z,17.17
2024-03-03T14:20:54.125Z,17.22
2024-03-03T14:23:32.023Z,17.01
2024-03-03T14:26:04.968Z,17.18
2024-03-03T14:28:37.908Z,17.18
2024-03-03T14:31:10.594Z,17.69
2024-03-03T14:33:43.341Z,17.74
2024-03-03T14:36:17.202Z,17.86
2024-03-03T14:38:50.388Z,18.33
2024-03-03T14:41:23.193Z,18.04
2024-03-03T14:43:57.982Z,18.09
2024-03-03T14:46:32.430Z,18.10
2024-03-03T14:49:06.540Z,17.95
2024-03-03T14:51:39.374Z,18.22
2024-03-03T14:54:14.123Z,18.14
2024-03-03T14:56:58.686Z,18.12
2024-03-03T14:59:31.889Z,18.67
2024-03-03T15:02:08.346Z,18.52
2024-03-03T15:04:51.625Z,18.32
2024-03-03T15:07:25.269Z,17.52
2024-03-03T15:13:10.403Z,18.25
2024-03-03T15:15:43.302Z,17.81
2024-03-03T15:18:19.574Z,16.89
2024-03-03T15:20:52.318Z,16.49
2024-03-03T15:23:25.648Z,16.04
2024-03-03T15:25:59.766Z,15.61
2024-03-03T15:28:32.654Z,15.34
2024-03-03T15:31:27.155Z,15.17
2024-03-03T15:34:00.915Z,14.75
2024-03-03T15:36:43.490Z,14.54
2024-03-03T15:39:17.332Z,14.60
2024-03-03T15:41:52.187Z,14.67
2024-03-03T15:45:10.985Z,14.59
2024-03-03T15:47:46.967Z,14.29
2024-03-03T15:50:21.931Z,14.05
2024-03-03T15:52:54.638Z,14.07
2024-03-03T15:55:27.674Z,14.02
2024-03-03T15:58:04.005Z,14.29
2024-03-03T16:00:39.017Z,14.44
2024-03-03T16:03:11.770Z,14.61
2024-03-03T16:05:48.811Z,14.57
2024-03-03T16:08:21.689Z,14.35
2024-03-03T16:10:54.936Z,14.42
2024-03-03T16:13:29.446Z,14.18
2024-03-03T16:16:02.499Z,14.41
2024-03-03T16:18:35.383Z,14.31
2024-03-03T16:21:11.398Z,14.31
2024-03-03T16:23:44.699Z,14.25
2024-03-03T16:26:18.764Z,14.24
2024-03-03T16:28:51.769Z,14.31
2024-03-03T16:31:24.445Z,14.18
2024-03-03T16:33:57.165Z,13.97
2024-03-03T16:36:30.468Z,13.86
2024-03-03T16:39:06.130Z,13.74
2024-03-03T16:41:52.053Z,13.56
2024-03-03T16:44:24.688Z,13.30
2024-03-03T16:46:57.491Z,12.92
2024-03-03T16:49:30.673Z,12.86
2024-03-03T16:52:03.791Z,12.81
2024-03-03T16:54:40.600Z,12.63
2024-03-03T16:57:13.304Z,12.36
2024-03-03T16:59:46.039Z,12.28
2024-03-03T17:02:23.113Z,12.12
2024-03-03T17:04:55.789Z,12.15
2024-03-03T17:07:29.240Z,12.23
2024-03-03T17:10:05.549Z,12.07
2024-03-03T17:12:39.283Z,12.10
2024-03-03T17:15:12.921Z,12.04
2024-03-03T17:17:45.818Z,12.01
2024-03-03T17:20:18.742Z,11.94
2024-03-03T17:22:51.535Z,11.92
2024-03-03T17:25:36.912Z,11.81
2024-03-03T17:28:13.467Z,11.84
2024-03-03T17:30:51.212Z,11.76
2024-03-03T17:33:26.423Z,11.83
2024-03-03T17:35:59.623Z,11.57
2024-03-03T17:38:34.500Z,11.67
2024-03-03T17:41:07.717Z,11.57
2024-03-03T17:43:40.478Z,11.37
2024-03-03T17:46:13.464Z,11.39
2024-03-03T17:48:46.332Z,11.41
2024-03-03T17:51:18.939Z,11.26
2024-03-03T17:53:52.598Z,11.32
2024-03-03T17:56:25.243Z,11.28
2024-03-03T17:58:57.984Z,11.09
2024-03-03T18:01:31.139Z,11.02
2024-03-03T18:04:05.284Z,11.17
2024-03-03T18:06:38.256Z,11.08
2024-03-03T18:09:12.731Z,10.99
2024-03-03T18:11:45.399Z,11.16
2024-03-03T18:14:18.088Z,10.70
2024-03-03T18:16:50.793Z,10.53
2024-03-03T18:19:23.538Z,10.13
2024-03-03T18:21:56.251Z,10.09
2024-03-03T18:24:32.761Z,9.95
2024-03-03T18:27:05.626Z,9.89
2024-03-03T18:29:38.756Z,9.77
2024-03-03T18:32:11.557Z,9.65
2024-03-03T18:34:44.267Z,9.70
2024-03-03T18:37:19.099Z,9.73
2024-03-03T18:39:55.362Z,9.55
2024-03-03T18:42:35.181Z,9.54
2024-03-03T18:45:08.396Z,9.63
2024-03-03T18:47:41.668Z,9.40
2024-03-03T18:50:20.960Z,9.33
2024-03-03T18:52:53.971Z,9.24
2024-03-03T18:55:27.539Z,9.06
2024-03-03T18:58:00.488Z,9.04
2024-03-03T19:00:33.285Z,8.92
2024-03-03T19:03:06.036Z,9.07
2024-03-03T19:05:39.372Z,8.98
2024-03-03T19:08:12.029Z,8.96
2024-03-03T19:10:46.361Z,8.94
2024-03-03T19:13:19.822Z,8.77
2024-03-03T19:15:54.241Z,8.88
2024-03-03T19:18:26.965Z,8.70
2024-03-03T19:21:02.362Z,8.73
2024-03-03T19:23:35.165Z,8.71
2024-03-03T19:26:35.139Z,8.66
2024-03-03T19:29:07.884Z,8.47
2024-03-03T19:31:40.601Z,8.51
2024-03-03T19:34:19.251Z,8.41
2024-03-03T19:36:52.049Z,8.43
2024-03-03T19:39:33.614Z,8.41
2024-03-03T19:42:07.201Z,8.30
2024-03-03T19:44:41.110Z,8.41
2024-03-03T19:47:13.840Z,8.32
2024-03-03T19:49:46.471Z,8.33
2024-03-03T19:52:19.457Z,8.33
2024-03-03T19:54:52.848Z,8.16
2024-03-03T19:57:28.178Z,8.28
2024-03-03T20:00:09.474Z,8.39
2024-03-03T20:02:50.929Z,8.24
2024-03-03T20:05:23.545Z,8.33
2024-03-03T20:07:56.262Z,8.44
2024-03-03T20:10:29.614Z,8.47
2024-03-03T20:13:05.131Z,8.45
2024-03-03T20:15:38.222Z,8.50
2024-03-03T20:18:11.045Z,8.41
2024-03-03T20:20:43.975Z,8.53
2024-03-03T20:23:16.731Z,8.46
2024-03-03T20:25:49.508Z,8.52
2024-03-03T20:28:22.248Z,8.57
2024-03-03T20:30:55.108Z,8.48
2024-03-03T20:33:31.362Z,8.55
2024-03-03T20:36:04.637Z,8.47
2024-03-03T20:38:45.444Z,8.46
2024-03-03T20:41:18.073Z,8.58
2024-03-03T20:43:52.573Z,8.55
2024-03-03T20:46:43.887Z,8.60
2024-03-03T20:49:18.992Z,8.56
2024-03-03T20:51:52.343Z,8.51
2024-03-03T20:54:25.078Z,8.61
2024-03-03T20:56:58.742Z,8.61
2024-03-03T20:59:32.509Z,8.55
2024-03-03T21:02:08.362Z,8.63
2024-03-03T21:04:43.899Z,8.48
2024-03-03T21:07:17.280Z,8.45
2024-03-03T21:09:50.179Z,8.57
2024-03-03T21:12:23.024Z,8.55
2024-03-03T21:14:55.745Z,8.47
2024-03-03T21:17:28.424Z,8.46
2024-03-03T21:20:01.081Z,8.48
2024-03-03T21:22:33.999Z,8.52
2024-03-03T21:25:08.611Z,8.53
2024-03-03T21:27:43.410Z,8.53
2024-03-03T21:30:16.269Z,8.42
2024-03-03T21:32:49.036Z,8.41
2024-03-03T21:35:22.032Z,8.42
2024-03-03T21:37:54.672Z,8.24
2024-03-03T21:40:31.617Z,8.24
2024-03-03T21:43:12.045Z,8.25
2024-03-03T21:45:45.302Z,8.21
2024-03-03T21:48:18.107Z,8.16
2024-03-03T21:50:53.639Z,8.17
2024-03-03T21:54:45.553Z,8.12
2024-03-03T21:57:37.330Z,7.96
2024-03-03T22:00:26.965Z,7.89
2024-03-03T22:07:26.848Z,7.77
